createdAt,value
2018-03-08T00:00:31.223Z,10.70
2018-03-08T00:02:58.271Z,10.70
2018-03-08T00:05:25.321Z,10.70
2018-03-08T00:07:52.361Z,10.60
2018-03-08T00:10:19.419Z,10.60
2018-03-08T00:12:46.470Z,10.60
2018-03-08T00:15:13.377Z,10.60
2018-03-08T00:17:40.364Z,10.60
2018-03-08T00:20:07.302Z,10.60
2018-03-08T00:22:34.064Z,10.50
2018-03-08T00:25:00.992Z,10.50
2018-03-08T00:27:27.836Z,10.50
2018-03-08T00:29:54.895Z,10.50
2018-03-08T00:32:21.692Z,10.40
2018-03-08T00:34:48.472Z,10.40
2018-03-08T00:37:15.298Z,10.40
2018-03-08T00:39:42.080Z,10.40
2018-03-08T00:42:08.982Z,10.30
2018-03-08T00:44:35.825Z,10.30
2018-03-08T00:47:02.799Z,10.30
2018-03-08T00:49:29.850Z,10.30
2018-03-08T00:51:56.636Z,10.30
2018-03-08T00:54:24.381Z,10.30
2018-03-08T00:56:51.151Z,10.20
2018-03-08T00:59:18.724Z,10.20
2018-03-08T01:01:45.680Z,10.20
2018-03-08T01:04:12.552Z,10.20
2018-03-08T01:06:46.470Z,10.20
2018-03-08T01:09:13.418Z,10.20
2018-03-08T01:11:40.229Z,10.20
2018-03-08T01:14:07.098Z,10.20
2018-03-08T01:16:33.945Z,10.10
2018-03-08T01:19:00.999Z,10.10
2018-03-08T01:21:28.049Z,10.10
2018-03-08T01:23:54.876Z,10.10
2018-03-08T01:26:21.730Z,10.20
2018-03-08T01:28:48.574Z,10.20
2018-03-08T01:31:15.421Z,10.20
2018-03-08T01:33:42.266Z,10.10
2018-03-08T01:36:21.091Z,10.10
2018-03-08T01:38:47.903Z,10.10
2018-03-08T01:41:14.708Z,10.00
2018-03-08T01:43:41.492Z,10.10
2018-03-08T01:46:08.571Z,10.00
2018-03-08T01:48:35.416Z,10.00
2018-03-08T01:51:02.193Z,10.00
2018-03-08T01:53:29.798Z,10.00
2018-03-08T01:55:56.877Z,10.00
2018-03-08T01:58:23.715Z,9.90
2018-03-08T02:00:56.609Z,9.90
2018-03-08T02:03:23.396Z,9.90
2018-03-08T02:05:50.997Z,9.80
2018-03-08T02:08:17.817Z,9.80
2018-03-08T02:10:44.646Z,9.90
2018-03-08T02:13:12.194Z,9.80
2018-03-08T02:15:39.803Z,9.80
2018-03-08T02:18:06.659Z,9.80
2018-03-08T02:20:33.556Z,9.90
2018-03-08T02:23:01.178Z,9.90
2018-03-08T02:25:28.027Z,9.80
2018-03-08T02:27:54.856Z,9.80
2018-03-08T02:30:28.742Z,9.80
2018-03-08T02:32:55.533Z,9.80
2018-03-08T02:35:22.572Z,9.80
2018-03-08T02:37:49.385Z,9.80
2018-03-08T02:40:16.313Z,9.80
2018-03-08T02:42:43.150Z,9.80
2018-03-08T02:45:10.775Z,9.70
2018-03-08T02:47:37.633Z,9.70
2018-03-08T02:50:04.506Z,9.70
2018-03-08T02:52:32.097Z,9.60
2018-03-08T02:54:59.048Z,9.60
2018-03-08T02:57:25.965Z,9.60
2018-03-08T02:59:53.588Z,9.60
2018-03-08T03:02:20.439Z,9.60
2018-03-08T03:04:47.247Z,9.60
2018-03-08T03:07:14.110Z,9.50
2018-03-08T03:09:40.970Z,9.50
2018-03-08T03:12:07.886Z,9.50
2018-03-08T03:14:34.773Z,9.50
2018-03-08T03:17:02.326Z,9.40
2018-03-08T03:19:29.139Z,9.40
2018-03-08T03:21:55.966Z,9.40
2018-03-08T03:24:22.788Z,9.40
2018-03-08T03:26:50.370Z,9.40
2018-03-08T03:29:17.149Z,9.40
2018-03-08T03:31:44.066Z,9.40
2018-03-08T03:34:10.903Z,9.40
2018-03-08T03:36:37.747Z,9.40
2018-03-08T03:39:04.572Z,9.40
2018-03-08T03:41:32.454Z,9.40
2018-03-08T03:43:59.277Z,9.40
2018-03-08T03:46:26.827Z,9.50
2018-03-08T03:48:54.448Z,9.40
2018-03-08T03:51:21.258Z,9.40
2018-03-08T03:53:48.122Z,9.40
2018-03-08T03:56:14.970Z,9.40
2018-03-08T03:58:41.760Z,9.40
2018-03-08T04:01:08.595Z,9.40
2018-03-08T04:03:35.529Z,9.50
2018-03-08T04:06:02.380Z,9.50
2018-03-08T04:08:29.177Z,9.50
2018-03-08T04:10:56.058Z,9.50
2018-03-08T04:13:22.890Z,9.60
2018-03-08T04:15:49.690Z,9.50
2018-03-08T04:18:17.240Z,9.60
2018-03-08T04:20:44.817Z,9.60
2018-03-08T04:23:12.446Z,9.60
2018-03-08T04:25:39.296Z,9.60
2018-03-08T04:28:06.376Z,9.60
2018-03-08T04:30:34.030Z,9.70
2018-03-08T04:33:01.630Z,9.70
2018-03-08T04:35:28.481Z,9.60
2018-03-08T04:37:55.420Z,9.70
2018-03-08T04:40:22.243Z,9.70
2018-03-08T04:42:49.118Z,9.70
2018-03-08T04:45:15.911Z,9.70
2018-03-08T04:47:43.548Z,9.60
2018-03-08T04:50:17.385Z,9.60
2018-03-08T04:52:44.920Z,9.60
2018-03-08T04:55:11.848Z,9.60
2018-03-08T04:57:38.650Z,9.60
2018-03-08T05:00:05.490Z,9.60
2018-03-08T05:02:33.062Z,9.50
2018-03-08T05:05:00.048Z,9.50
2018-03-08T05:07:26.847Z,9.50
2018-03-08T05:09:54.422Z,9.60
2018-03-08T05:12:21.280Z,9.60
2018-03-08T05:14:48.082Z,9.60
2018-03-08T05:17:15.678Z,9.50
2018-03-08T05:19:42.500Z,9.50
2018-03-08T05:22:10.038Z,9.40
2018-03-08T05:24:36.887Z,9.40
2018-03-08T05:27:03.731Z,9.40
2018-03-08T05:29:30.619Z,9.30
2018-03-08T05:31:57.455Z,9.20
2018-03-08T05:34:24.333Z,9.20
2018-03-08T05:36:51.225Z,9.20
2018-03-08T05:39:18.812Z,9.10
2018-03-08T05:41:45.713Z,9.10
2018-03-08T05:44:12.516Z,9.10
2018-03-08T05:46:40.017Z,9.00
2018-03-08T05:49:06.994Z,9.00
2018-03-08T05:51:34.536Z,9.00
2018-03-08T05:54:02.170Z,9.00
2018-03-08T05:56:28.986Z,8.90
2018-03-08T05:58:55.837Z,8.90
2018-03-08T06:01:22.734Z,8.90
2018-03-08T06:03:50.377Z,9.00
2018-03-08T06:06:17.255Z,8.90
2018-03-08T06:08:44.832Z,9.00
2018-03-08T06:11:16.386Z,8.90
2018-03-08T06:13:43.223Z,9.00
2018-03-08T06:16:10.122Z,9.00
2018-03-08T06:18:36.928Z,9.00
2018-03-08T06:21:03.756Z,9.00
2018-03-08T06:23:31.370Z,9.00
2018-03-08T06:25:58.258Z,9.00
2018-03-08T06:28:25.892Z,9.10
2018-03-08T06:30:52.697Z,9.00
2018-03-08T06:33:19.513Z,9.00
2018-03-08T06:35:47.232Z,9.00
2018-03-08T06:38:14.169Z,9.00
2018-03-08T06:40:41.124Z,9.00
2018-03-08T06:43:07.948Z,9.00
2018-03-08T06:45:34.910Z,9.10
2018-03-08T06:48:01.859Z,9.10
2018-03-08T06:50:28.914Z,9.10
2018-03-08T06:52:55.752Z,9.10
2018-03-08T06:55:22.906Z,9.10
2018-03-08T06:57:49.745Z,9.20
2018-03-08T07:00:16.695Z,9.20
2018-03-08T07:02:43.756Z,9.20
2018-03-08T07:05:10.677Z,9.30
2018-03-08T07:07:37.539Z,9.30
2018-03-08T07:10:04.484Z,9.30
2018-03-08T07:12:31.338Z,9.30
2018-03-08T07:14:58.277Z,9.40
2018-03-08T07:17:25.194Z,9.40
2018-03-08T07:19:52.167Z,9.40
2018-03-08T07:22:19.112Z,9.40
2018-03-08T07:24:46.069Z,9.50
2018-03-08T07:27:13.005Z,9.50
2018-03-08T07:29:39.955Z,9.50
2018-03-08T07:32:06.883Z,9.60
2018-03-08T07:34:33.746Z,9.60
2018-03-08T07:37:00.804Z,9.60
2018-03-08T07:39:27.699Z,9.70
2018-03-08T07:41:55.288Z,9.60
2018-03-08T07:44:22.270Z,9.60
2018-03-08T07:46:49.308Z,9.70
2018-03-08T07:49:16.358Z,9.70
2018-03-08T07:51:43.408Z,9.70
2018-03-08T07:54:10.345Z,9.80
2018-03-08T07:56:37.295Z,9.90
2018-03-08T07:59:04.136Z,10.00
2018-03-08T08:01:31.082Z,10.10
2018-03-08T08:03:58.142Z,10.10
2018-03-08T08:06:36.353Z,10.20
2018-03-08T08:09:09.336Z,10.20
2018-03-08T08:11:36.392Z,10.20
2018-03-08T08:14:03.307Z,10.20
2018-03-08T08:16:31.003Z,10.30
2018-03-08T08:18:58.635Z,10.30
2018-03-08T08:21:25.453Z,10.30
2018-03-08T08:23:53.176Z,10.40
2018-03-08T08:26:20.091Z,10.40
2018-03-08T08:28:46.983Z,10.60
2018-03-08T08:31:14.010Z,10.70
2018-03-08T08:33:40.854Z,10.80
2018-03-08T08:36:07.799Z,10.90
2018-03-08T08:38:34.744Z,11.00
2018-03-08T08:41:01.805Z,11.00
2018-03-08T08:43:28.857Z,11.00
2018-03-08T08:45:55.687Z,11.10
2018-03-08T08:48:22.531Z,11.00
2018-03-08T08:50:49.462Z,11.10
2018-03-08T08:53:16.531Z,11.10
2018-03-08T08:55:43.403Z,11.10
2018-03-08T08:58:10.328Z,11.20
2018-03-08T09:00:37.270Z,11.20
2018-03-08T09:03:06.374Z,11.40
2018-03-08T09:05:33.338Z,11.30
2018-03-08T09:08:00.960Z,11.40
2018-03-08T09:10:27.924Z,11.40
2018-03-08T09:12:54.980Z,11.50
2018-03-08T09:15:21.990Z,11.50
2018-03-08T09:17:48.986Z,11.50
2018-03-08T09:20:15.916Z,11.60
2018-03-08T09:22:42.871Z,11.70
2018-03-08T09:25:10.125Z,11.90
2018-03-08T09:27:37.143Z,12.00
2018-03-08T09:30:04.328Z,12.00
2018-03-08T09:32:31.313Z,12.10
2018-03-08T09:34:59.040Z,12.20
2018-03-08T09:37:25.863Z,12.20
2018-03-08T09:39:52.823Z,12.10
2018-03-08T09:42:19.767Z,12.10
2018-03-08T09:44:46.827Z,12.10
2018-03-08T09:47:13.767Z,12.00
2018-03-08T09:49:40.628Z,12.10
2018-03-08T09:52:07.661Z,12.10
2018-03-08T09:54:34.571Z,12.30
2018-03-08T09:57:01.564Z,12.60
2018-03-08T09:59:28.462Z,12.70
2018-03-08T10:01:55.308Z,12.90
2018-03-08T10:04:22.609Z,13.20
2018-03-08T10:06:49.464Z,13.40
2018-03-08T10:09:16.399Z,13.80
2018-03-08T10:11:43.338Z,14.10
2018-03-08T10:14:10.498Z,14.40
2018-03-08T10:16:37.547Z,14.60
2018-03-08T10:19:04.384Z,14.80
2018-03-08T10:21:44.517Z,15.00
2018-03-08T10:23:58.287Z,15.20
2018-03-08T10:26:25.226Z,15.50
2018-03-08T10:28:52.170Z,15.70
2018-03-08T10:31:18.983Z,16.00
2018-03-08T10:33:45.972Z,16.20
2018-03-08T10:36:12.781Z,16.40
2018-03-08T10:38:39.864Z,16.50
2018-03-08T10:41:06.904Z,16.70
2018-03-08T10:43:33.860Z,16.90
2018-03-08T10:46:00.910Z,17.10
2018-03-08T10:48:27.848Z,17.20
2018-03-08T10:50:54.805Z,17.40
2018-03-08T10:53:21.612Z,17.50
2018-03-08T10:55:48.707Z,17.60
2018-03-08T10:58:15.639Z,17.70
2018-03-08T11:00:46.588Z,17.90
2018-03-08T11:03:13.648Z,17.90
2018-03-08T11:05:46.763Z,18.00
2018-03-08T11:08:14.493Z,18.10
2018-03-08T11:10:41.544Z,18.10
2018-03-08T11:13:08.696Z,18.20
2018-03-08T11:15:39.165Z,18.30
2018-03-08T11:18:07.760Z,18.50
2018-03-08T11:20:34.646Z,18.50
2018-03-08T11:23:01.490Z,18.70
2018-03-08T11:25:28.436Z,18.80
2018-03-08T11:27:55.281Z,18.90
2018-03-08T11:30:22.451Z,18.90
2018-03-08T11:32:49.382Z,19.10
2018-03-08T11:35:16.337Z,19.10
2018-03-08T11:37:43.388Z,19.20
2018-03-08T11:40:10.303Z,19.30
2018-03-08T11:42:37.283Z,19.50
2018-03-08T11:45:04.202Z,19.50
2018-03-08T11:47:31.016Z,19.60
2018-03-08T11:49:58.626Z,19.90
2018-03-08T11:52:25.575Z,19.90
2018-03-08T11:54:52.580Z,19.70
2018-03-08T11:57:20.181Z,19.20
2018-03-08T11:59:47.343Z,19.20
2018-03-08T12:02:14.212Z,19.00
2018-03-08T12:04:41.229Z,18.70
2018-03-08T12:07:08.172Z,18.50
2018-03-08T12:09:35.232Z,18.30
2018-03-08T12:12:02.053Z,18.10
2018-03-08T12:14:38.162Z,17.90
2018-03-08T12:17:06.058Z,18.40
2018-03-08T12:19:33.748Z,18.80
2018-03-08T12:22:01.429Z,19.20
2018-03-08T12:24:28.300Z,19.10
2018-03-08T12:26:55.202Z,19.40
2018-03-08T12:29:22.040Z,19.60
2018-03-08T12:31:48.907Z,19.40
2018-03-08T12:34:15.754Z,19.20
2018-03-08T12:36:42.700Z,18.80
2018-03-08T12:39:24.393Z,18.50
2018-03-08T12:41:51.341Z,18.20
2018-03-08T12:44:18.178Z,17.90
2018-03-08T12:46:45.111Z,17.80
2018-03-08T12:49:12.189Z,18.10
2018-03-08T12:51:39.342Z,18.50
2018-03-08T12:54:06.391Z,18.80
2018-03-08T12:56:33.416Z,19.30
2018-03-08T12:59:00.489Z,19.20
2018-03-08T13:01:27.430Z,19.20
2018-03-08T13:03:54.373Z,19.50
2018-03-08T13:06:21.319Z,19.90
2018-03-08T13:08:48.372Z,20.10
2018-03-08T13:11:18.459Z,20.00
2018-03-08T13:13:45.441Z,19.90
2018-03-08T13:16:12.394Z,19.60
2018-03-08T13:18:39.335Z,19.40
2018-03-08T13:21:06.177Z,19.30
2018-03-08T13:23:33.123Z,19.50
2018-03-08T13:25:59.945Z,19.80
2018-03-08T13:28:26.779Z,20.00
2018-03-08T13:30:53.865Z,20.30
2018-03-08T13:33:20.701Z,20.40
2018-03-08T13:35:47.642Z,20.50
2018-03-08T13:38:14.601Z,20.60
2018-03-08T13:40:41.660Z,20.70
2018-03-08T13:43:08.710Z,20.80
2018-03-08T13:45:35.648Z,21.00
2018-03-08T13:48:02.624Z,21.10
2018-03-08T13:50:29.509Z,21.10
2018-03-08T13:52:56.439Z,21.20
2018-03-08T13:55:24.480Z,21.30
2018-03-08T13:57:52.162Z,21.40
2018-03-08T14:00:19.766Z,21.40
2018-03-08T14:02:46.611Z,21.40
2018-03-08T14:05:13.495Z,21.40
2018-03-08T14:07:40.385Z,21.40
2018-03-08T14:10:07.348Z,21.40
2018-03-08T14:12:34.186Z,21.50
2018-03-08T14:15:29.204Z,21.50
2018-03-08T14:17:56.073Z,21.50
2018-03-08T14:20:22.892Z,21.40
2018-03-08T14:22:49.816Z,21.30
2018-03-08T14:25:16.713Z,21.20
2018-03-08T14:27:43.616Z,21.20
2018-03-08T14:33:05.261Z,21.20
2018-03-08T14:35:32.940Z,21.00
2018-03-08T14:38:00.016Z,21.00
2018-03-08T14:40:26.843Z,20.70
2018-03-08T14:42:53.697Z,20.60
2018-03-08T14:45:20.833Z,20.40
2018-03-08T14:47:47.815Z,20.50
2018-03-08T14:50:14.646Z,20.50
2018-03-08T14:52:41.584Z,20.40
2018-03-08T14:55:08.545Z,20.40
2018-03-08T14:57:35.504Z,20.60
2018-03-08T15:00:02.530Z,20.60
2018-03-08T15:02:29.476Z,20.60
2018-03-08T15:04:56.399Z,20.60
2018-03-08T15:07:23.376Z,20.60
2018-03-08T15:09:50.193Z,20.60
2018-03-08T15:12:17.148Z,20.60
2018-03-08T15:15:17.044Z,20.60
2018-03-08T15:17:44.039Z,20.50
2018-03-08T15:20:11.188Z,20.50
2018-03-08T15:22:38.127Z,20.50
2018-03-08T15:25:04.936Z,20.60
2018-03-08T15:27:32.021Z,20.60
2018-03-08T15:29:59.180Z,20.60
2018-03-08T15:32:26.230Z,20.50
2018-03-08T15:34:53.279Z,20.50
2018-03-08T15:37:20.219Z,20.60
2018-03-08T15:39:47.029Z,20.50
2018-03-08T15:42:14.010Z,20.40
2018-03-08T15:44:40.955Z,20.40
2018-03-08T15:47:07.799Z,20.20
2018-03-08T15:49:34.894Z,20.20
2018-03-08T15:52:02.483Z,20.00
2018-03-08T15:54:29.574Z,20.00
2018-03-08T15:56:56.602Z,20.00
2018-03-08T15:59:23.556Z,19.90
2018-03-08T16:01:50.506Z,19.70
2018-03-08T16:04:17.430Z,19.50
2018-03-08T16:10:12.790Z,19.00
2018-03-08T16:12:39.848Z,18.80
2018-03-08T16:15:35.321Z,18.60
2018-03-08T16:18:02.203Z,18.50
2018-03-08T16:20:29.156Z,18.40
2018-03-08T16:22:56.004Z,18.30
2018-03-08T16:25:23.127Z,18.20
2018-03-08T16:27:50.092Z,18.10
2018-03-08T16:30:16.903Z,18.00
2018-03-08T16:32:43.748Z,17.90
2018-03-08T16:35:10.612Z,17.80
2018-03-08T16:37:37.578Z,17.70
2018-03-08T16:40:04.519Z,17.70
2018-03-08T16:42:31.468Z,17.60
2018-03-08T16:44:58.525Z,17.50
2018-03-08T16:47:25.447Z,17.40
2018-03-08T16:49:52.519Z,17.30
2018-03-08T16:52:19.459Z,17.30
2018-03-08T16:54:46.305Z,17.20
2018-03-08T16:57:13.139Z,17.10
2018-03-08T16:59:40.090Z,17.10
2018-03-08T17:02:07.224Z,17.00
2018-03-08T17:04:34.222Z,16.90
2018-03-08T17:07:01.005Z,16.80
2018-03-08T17:09:27.883Z,16.80
2018-03-08T17:11:54.699Z,16.70
2018-03-08T17:14:31.309Z,16.70
2018-03-08T17:16:58.124Z,16.60
2018-03-08T17:19:25.203Z,16.50
2018-03-08T17:21:52.253Z,16.50
2018-03-08T17:24:19.190Z,16.50
2018-03-08T17:26:46.027Z,16.50
2018-03-08T17:29:12.880Z,16.40
2018-03-08T17:31:39.689Z,16.40
2018-03-08T17:34:06.579Z,16.40
2018-03-08T17:36:33.419Z,16.30
2018-03-08T17:39:00.468Z,16.30
2018-03-08T17:41:27.261Z,16.30
2018-03-08T17:43:54.868Z,16.20
2018-03-08T17:46:21.817Z,16.20
2018-03-08T17:48:48.759Z,16.10
2018-03-08T17:51:15.692Z,16.10
2018-03-08T17:53:42.765Z,16.00
2018-03-08T17:58:43.187Z,16.00
2018-03-08T18:01:10.132Z,16.00
2018-03-08T18:03:36.956Z,15.90
2018-03-08T18:06:03.776Z,15.90
2018-03-08T18:08:31.354Z,16.00
2018-03-08T18:10:58.997Z,15.90
2018-03-08T18:13:25.851Z,15.90
2018-03-08T18:18:56.587Z,15.80
2018-03-08T18:21:23.499Z,15.80
2018-03-08T18:23:50.395Z,15.80
2018-03-08T18:26:17.973Z,15.70
2018-03-08T18:28:45.522Z,15.70
2018-03-08T18:31:13.148Z,15.70
2018-03-08T18:33:39.985Z,15.70
2018-03-08T18:36:06.837Z,15.70
2018-03-08T18:38:33.664Z,15.70
2018-03-08T18:41:00.564Z,15.60
2018-03-08T18:43:28.197Z,15.50
2018-03-08T18:45:55.153Z,15.50
2018-03-08T18:48:22.912Z,15.40
2018-03-08T18:50:49.851Z,15.30
2018-03-08T18:53:16.724Z,15.40
2018-03-08T18:55:43.751Z,15.30
2018-03-08T18:58:22.505Z,15.20
2018-03-08T19:00:50.238Z,15.10
2018-03-08T19:03:24.116Z,15.00
2018-03-08T19:05:51.095Z,15.10
2018-03-08T19:08:18.073Z,15.00
2018-03-08T19:10:44.953Z,15.00
2018-03-08T19:13:11.828Z,14.90
2018-03-08T19:18:41.465Z,14.90
2018-03-08T19:21:08.516Z,14.80
2018-03-08T19:23:35.565Z,14.70
2018-03-08T19:26:02.506Z,14.70
2018-03-08T19:28:29.555Z,14.60
2018-03-08T19:30:56.484Z,14.60
2018-03-08T19:33:23.449Z,14.60
2018-03-08T19:35:50.249Z,14.50
2018-03-08T19:38:18.076Z,14.50
2018-03-08T19:40:44.879Z,14.50
2018-03-08T19:43:11.853Z,14.50
2018-03-08T19:45:39.010Z,14.40
2018-03-08T19:48:07.642Z,14.40
2018-03-08T19:50:50.082Z,14.30
2018-03-08T19:53:16.997Z,14.30
2018-03-08T19:55:43.932Z,14.30
2018-03-08T19:58:11.580Z,14.20
2018-03-08T20:00:38.526Z,14.20
2018-03-08T20:03:07.301Z,14.20
2018-03-08T20:05:35.072Z,14.10
2018-03-08T20:08:02.015Z,14.10
2018-03-08T20:10:29.073Z,14.10
2018-03-08T20:12:56.729Z,14.00
2018-03-08T20:18:26.471Z,13.90
2018-03-08T20:20:53.356Z,13.90
2018-03-08T20:23:20.276Z,13.90
2018-03-08T20:25:47.087Z,13.80
2018-03-08T20:28:13.957Z,13.80
2018-03-08T20:30:42.325Z,13.70
2018-03-08T20:33:09.175Z,13.70
2018-03-08T20:35:36.004Z,13.80
2018-03-08T20:38:02.870Z,13.70
2018-03-08T20:40:29.720Z,13.70
2018-03-08T20:42:56.638Z,13.70
2018-03-08T20:45:23.713Z,13.70
2018-03-08T20:47:50.618Z,13.60
2018-03-08T20:50:17.567Z,13.50
2018-03-08T20:52:44.519Z,13.50
2018-03-08T20:55:30.699Z,13.50
2018-03-08T20:57:57.577Z,13.40
2018-03-08T21:00:24.800Z,13.40
2018-03-08T21:02:51.885Z,13.40
2018-03-08T21:05:18.720Z,13.40
2018-03-08T21:07:45.548Z,13.30
2018-03-08T21:10:12.415Z,13.30
2018-03-08T21:12:39.468Z,13.30
2018-03-08T21:15:32.765Z,13.30
2018-03-08T21:21:16.488Z,13.20
2018-03-08T21:23:43.451Z,13.10
2018-03-08T21:26:41.405Z,13.10
2018-03-08T21:29:08.671Z,13.10
2018-03-08T21:31:35.591Z,13.10
2018-03-08T21:34:02.569Z,13.00
2018-03-08T21:36:29.386Z,13.00
2018-03-08T21:38:56.354Z,13.00
2018-03-08T21:41:23.230Z,13.00
2018-03-08T21:43:50.083Z,12.90
2018-03-08T21:46:17.745Z,12.90
2018-03-08T21:48:45.376Z,12.90
2018-03-08T21:51:12.192Z,12.90
2018-03-08T21:53:39.020Z,12.90
2018-03-08T21:56:05.867Z,12.90
2018-03-08T21:58:32.745Z,12.80
2018-03-08T22:00:59.615Z,12.80
2018-03-08T22:03:26.504Z,12.80
2018-03-08T22:05:53.349Z,12.70
2018-03-08T22:08:20.243Z,12.70
2018-03-08T22:10:47.091Z,12.70
2018-03-08T22:13:13.959Z,12.70
2018-03-08T22:18:49.694Z,12.70
2018-03-08T22:21:16.748Z,12.70
2018-03-08T22:23:43.791Z,12.60
2018-03-08T22:26:10.741Z,12.60
2018-03-08T22:28:37.587Z,12.60
2018-03-08T22:31:04.533Z,12.50
2018-03-08T22:33:31.448Z,12.50
2018-03-08T22:35:58.536Z,12.50
2018-03-08T22:38:25.471Z,12.50
2018-03-08T22:40:52.512Z,12.50
2018-03-08T22:43:19.578Z,12.40
2018-03-08T22:45:46.396Z,12.40
2018-03-08T22:48:13.261Z,12.40
2018-03-08T22:50:40.108Z,12.40
2018-03-08T22:53:08.615Z,12.40
2018-03-08T22:55:36.158Z,12.30
2018-03-08T22:58:03.208Z,12.30
2018-03-08T23:00:30.265Z,12.30
2018-03-08T23:03:03.378Z,12.30
2018-03-08T23:05:30.284Z,12.30
2018-03-08T23:07:57.234Z,12.20
2018-03-08T23:10:27.430Z,12.20
2018-03-08T23:12:55.926Z,12.20
2018-03-08T23:15:27.541Z,12.20
2018-03-08T23:17:59.842Z,12.20
2018-03-08T23:20:31.191Z,12.20
2018-03-08T23:22:58.370Z,12.20
2018-03-08T23:25:29.403Z,12.10
2018-03-08T23:27:57.595Z,12.10
2018-03-08T23:30:24.747Z,12.10
2018-03-08T23:32:52.729Z,12.00
2018-03-08T23:35:21.308Z,12.00
2018-03-08T23:37:50.548Z,11.90
2018-03-08T23:40:21.049Z,11.90
2018-03-08T23:42:52.857Z,11.90
2018-03-08T23:45:21.707Z,11.90
2018-03-08T23:47:53.633Z,11.80
2018-03-08T23:50:20.711Z,11.90
2018-03-08T23:52:47.642Z,11.90
2018-03-08T23:55:14.485Z,11.90
2018-03-08T23:57:41.333Z,11.80
